Latest Coastal Weather Observations for Port Lincoln Airport

IDS60701

Issued at 12:31 am CST Sunday 24 May 2015 (issued every 10 minutes, with the page automatically refreshed every 10 minutes)

About coastal observations | Map of coastal stations | Coastal observations for SA | Marine services | Other Formats
Station Details ID: 018192 Name: PORT LINCOLN AWS Lat: -34.60 Lon: 135.88 Height: 8.5 m
Data from the previous 72 hours. | See also: Recent months at Port Lincoln Airport
Date/Time
CST
Temp

°C
Wind Pressure Rain
since 9am
mm
Weather Cloud Vis
km
Sea
Height
m
Swell
Dir
 
Speed
knots
Gust
knots
hPa Trend Height
m
Period
s
Dir
24/12:30am 9.5 N 1 3 1026.9 - 0.0 - - 10 - - - -
24/12:00am 10.5 NNW 4 6 1027.2 - 0.0 - - 10 - - - -
 
Date/Time
CST
Temp

°C
Wind Pressure Rain
since 9am
mm
Weather Cloud Vis
km
Sea
Height
m
Swell
Dir
 
Speed
knots
Gust
knots
hPa Trend Height
m
Period
s
Dir
23/11:30pm 10.4 NNE 6 7 1027.2 - 0.0 - - 10 - - - -
23/11:00pm 9.7 NNE 5 6 1027.2 - 0.0 - - 10 - - - -
23/10:30pm 10.5 SSE 1 7 1027.3 - 0.0 - Partly cloudy 10 - - - -
23/10:00pm 10.1 CALM 0 5 1027.7 - 0.0 - - 10 - - - -
23/09:30pm 10.1 CALM 0 0 1027.9 - 0.0 - - 10 - - - -
23/09:00pm 9.7 CALM 0 0 1028.0 - 0.0 - - 10 - - - -
23/08:30pm 9.3 CALM 0 0 1027.9 - 0.0 - - 10 - - - -
23/08:00pm 10.5 CALM 0 4 1028.0 - 0.0 - - 10 - - - -
23/07:30pm 9.3 N 2 4 1028.0 - 0.0 - - 10 - - - -
23/07:00pm 11.5 CALM 0 0 1028.0 - 0.0 - - 10 - - - -
23/06:30pm 11.7 W 1 4 1027.8 - 0.0 - - 10 - - - -
23/06:00pm 12.7 NE 7 11 1027.6 - 0.0 - Mostly clear 10 - - - -
23/05:30pm 13.3 NE 10 12 1027.0 - 0.0 - - 10 - - - -
23/05:00pm 13.9 ENE 11 13 1027.0 - 0.0 - - 10 - - - -
23/04:30pm 14.4 ENE 11 13 1027.3 - 0.0 - - 10 - - - -
23/04:00pm 14.5 ENE 12 14 1027.6 - 0.0 - - 10 - - - -
23/03:30pm 14.5 ENE 11 14 1027.7 - 0.0 - - 10 - - - -
23/03:00pm 15.0 ENE 11 13 1027.9 - 0.0 - Mostly clear 10 - - - -
23/02:30pm 14.5 ENE 11 13 1028.1 - 0.0 - Partly cloudy 10 - - - -
23/02:00pm 14.5 ENE 11 13 1028.4 - 0.0 - Partly cloudy 10 - - - -
23/01:30pm 14.9 ENE 10 12 1028.5 - 0.0 - Partly cloudy 10 - - - -
23/01:00pm 14.8 ENE 10 13 1028.7 - 0.0 - Partly cloudy 10 - - - -
23/12:30pm 15.0 ENE 10 13 1029.1 - 0.0 - - 10 - - - -
23/12:00pm 15.1 ENE 11 14 1029.7 - 0.0 - - 10 - - - -
23/11:30am 15.3 ENE 11 15 1030.2 - 0.0 - Partly cloudy 10 - - - -
23/11:00am 14.9 NE 10 13 1030.6 - 0.0 - Partly cloudy 10 - - - -
23/10:30am 14.6 NE 11 14 1030.6 - 0.0 - - 10 - - - -
23/10:00am 13.9 NE 11 14 1030.8 - 0.0 - Partly cloudy 10 - - - -
23/09:30am 13.4 NNE 8 11 1030.9 - 0.0 - - 10 - - - -
23/09:00am 12.6 NNE 4 6 1031.1 - 0.2 - - 10 - - - -
23/08:30am 10.4 NNW 4 5 1031.1 - 0.2 - - 10 - - - -
23/08:00am 8.1 N 5 5 1031.0 - 0.2 - Partly cloudy 10 - - - -
23/07:30am 8.4 NW 4 5 1031.1 - 0.2 - Partly cloudy 10 - - - -
23/07:00am 8.9 N 4 4 1031.0 - 0.2 - Cloudy 10 - - - -
23/06:30am 8.7 N 5 6 1030.8 - 0.2 - Partly cloudy 10 - - - -
23/06:00am 8.4 N 5 6 1030.5 - 0.2 - Mostly clear 10 - - - -
23/05:30am 9.8 N 4 5 1030.3 - 0.2 - Partly cloudy 10 - - - -
23/05:00am 9.0 N 4 5 1030.1 - 0.2 - - 10 - - - -
23/04:30am 10.5 NNE 5 10 1030.0 - 0.2 - - 10 - - - -
23/04:00am 10.6 NNE 5 7 1030.1 - 0.2 - Partly cloudy 10 - - - -
23/03:30am 10.7 N 6 7 1030.3 - 0.2 - Cloudy 10 - - - -
23/03:00am 11.9 ENE 7 11 1030.5 - 0.2 - Mostly cloudy 10 - - - -
23/02:30am 12.4 NE 9 12 1030.7 - 0.2 - Partly cloudy 10 - - - -
23/02:00am 13.1 ENE 11 13 1030.7 - 0.2 - Partly cloudy 10 - - - -
23/01:30am 11.3 ENE 7 9 1030.9 - 0.2 - Partly cloudy 10 - - - -
23/01:00am 12.8 E 7 10 1031.0 - 0.2 - Cloudy 10 - - - -
23/12:30am 11.4 ENE 6 7 1031.0 - 0.2 - Partly cloudy 10 - - - -
23/12:00am 13.0 ESE 8 11 1031.4 - 0.2 - Cloudy 10 - - - -
 
Date/Time
CST
Temp

°C
Wind Pressure Rain
since 9am
mm
Weather Cloud Vis
km
Sea
Height
m
Swell
Dir
 
Speed
knots
Gust
knots
hPa Trend Height
m
Period
s
Dir
22/11:30pm 13.2 ESE 9 11 1031.4 - 0.2 - Cloudy 10 - - - -
22/11:00pm 12.9 ESE 7 8 1031.4 - 0.2 - Cloudy 10 - - - -
22/10:30pm 13.4 ESE 9 13 1031.6 - 0.2 - Cloudy 10 - - - -
22/10:00pm 13.7 E 12 14 1031.6 - 0.2 - Cloudy 10 - - - -
22/09:30pm 13.0 ENE 5 7 1031.5 - 0.2 - Partly cloudy 10 - - - -
22/09:00pm 13.3 E 7 9 1031.5 - 0.2 - Cloudy 10 - - - -
22/08:30pm 13.2 E 9 11 1031.5 - 0.2 - Partly cloudy 10 - - - -
22/08:00pm 13.2 E 9 12 1031.5 - 0.2 - Partly cloudy 10 - - - -
22/07:41pm 12.6 NE 7 9 1031.4 - 0.2 - Partly cloudy 10 - - - -
22/07:30pm 12.3 NE 10 13 1031.4 - 0.2 - Partly cloudy 10 - - - -
22/07:26pm 12.5 ENE 10 13 1031.3 - 0.2 - Partly cloudy 8 - - - -
22/07:00pm 13.0 ENE 7 9 1031.2 - 0.0 - Partly cloudy 10 - - - -
22/06:30pm 12.6 NE 8 10 1031.1 - 0.0 - Partly cloudy 10 - - - -
22/06:00pm 11.8 ENE 7 8 1031.1 - 0.0 - Mostly clear 10 - - - -
22/05:44pm 12.6 ENE 7 9 1031.0 - 0.0 - Partly cloudy 10 - - - -
22/05:30pm 13.1 ENE 7 9 1031.0 - 0.0 - Partly cloudy 10 - - - -
22/05:07pm 13.6 ENE 6 8 1031.1 - 0.0 - Partly cloudy 10 - - - -
22/05:00pm 13.5 ENE 5 7 1031.1 - 0.0 - Partly cloudy 10 - - - -
22/04:30pm 13.5 ENE 7 8 1031.1 - 0.0 - - 10 - - - -
22/04:00pm 14.7 E 7 8 1031.1 - 0.0 - - 10 - - - -
22/03:30pm 14.7 E 7 9 1031.0 - 0.0 - - 10 - - - -
22/03:00pm 15.1 E 7 9 1030.9 - 0.0 - - 10 - - - -
22/02:30pm 14.9 E 7 10 1031.2 - 0.0 - - 10 - - - -
22/02:00pm 15.4 ENE 8 10 1031.3 - 0.0 - Partly cloudy 10 - - - -
22/01:30pm 15.4 ENE 7 11 1031.5 - 0.0 - - 10 - - - -
22/01:00pm 15.5 E 8 10 1031.8 - 0.0 - Partly cloudy 10 - - - -
22/12:30pm 15.6 ENE 9 13 1032.0 - 0.0 - Partly cloudy 10 - - - -
22/12:00pm 15.8 ENE 9 12 1032.4 - 0.0 - Cloudy 10 - - - -
22/11:30am 15.8 E 9 12 1032.8 - 0.0 - Partly cloudy 10 - - - -
22/11:00am 15.4 E 9 11 1032.9 - 0.0 - Partly cloudy 10 - - - -
22/10:30am 15.3 E 7 10 1033.1 - 0.0 - Partly cloudy 10 - - - -
22/10:00am 14.2 S 4 5 1033.0 - 0.0 - Partly cloudy 10 - - - -
22/09:30am 13.1 WNW 2 6 1032.8 - 0.0 - Partly cloudy 10 - - - -
22/09:00am 11.5 NNW 4 4 1032.6 - 2.4 - Mostly clear 10 - - - -
22/08:30am 10.5 NNW 4 5 1032.4 - 2.4 - Partly cloudy 10 - - - -
22/08:00am 9.0 WNW 4 5 1032.1 - 2.4 - Partly cloudy 10 - - - -
22/07:30am 7.0 NW 4 5 1032.0 - 2.4 - Partly cloudy 10 - - - -
22/07:00am 7.3 NW 5 6 1031.5 - 2.4 - Partly cloudy 10 - - - -
22/06:30am 6.9 NW 5 6 1031.2 - 2.4 - Partly cloudy 10 - - - -
22/06:00am 7.1 NW 4 4 1030.8 - 2.4 - Cloudy 10 - - - -
22/05:30am 7.7 WNW 4 5 1030.5 - 2.4 - Partly cloudy 10 - - - -
22/05:00am 7.4 NW 4 5 1030.3 - 2.4 - Partly cloudy 10 - - - -
22/04:30am 7.3 NW 6 6 1030.3 - 2.4 - Partly cloudy 10 - - - -
22/04:00am 6.9 NW 6 6 1030.2 - 2.2 - Partly cloudy 10 - - - -
22/03:30am 6.8 NW 7 8 1030.3 - 2.2 - - 10 - - - -
22/03:00am 7.3 WNW 6 7 1030.6 - 2.2 - Mostly clear 10 - - - -
22/02:30am 6.9 CALM 0 0 1030.7 - 2.2 - Partly cloudy 10 - - - -
22/02:00am 7.6 N 1 3 1030.8 - 2.2 - Partly cloudy 10 - - - -
22/01:30am 7.4 WNW 4 5 1030.6 - 2.2 - - 10 - - - -
22/01:00am 7.7 WNW 4 5 1030.7 - 2.0 - Partly cloudy 10 - - - -
22/12:30am 8.8 WSW 5 6 1030.9 - 2.0 - Partly cloudy 10 - - - -
22/12:00am 8.4 W 4 4 1030.9 - 2.0 - - 10 - - - -
 
Date/Time
CST
Temp

°C
Wind Pressure Rain
since 9am
mm
Weather Cloud Vis
km
Sea
Height
m
Swell
Dir
 
Speed
knots
Gust
knots
hPa Trend Height
m
Period
s
Dir
21/11:30pm 7.2 WNW 3 5 1030.9 - 2.0 - - 10 - - - -
21/11:00pm 7.9 WNW 6 7 1031.0 - 2.0 - - 10 - - - -
21/10:30pm 8.3 WSW 5 6 1031.1 - 2.0 - - 10 - - - -
21/10:00pm 9.2 CALM 0 0 1031.0 - 2.0 - - 10 - - - -
21/09:30pm 9.0 WSW 6 8 1031.0 - 2.0 - - 10 - - - -
21/09:00pm 9.9 WSW 9 10 1030.8 - 2.0 - Mostly clear 10 - - - -
21/08:30pm 9.7 WSW 8 9 1030.7 - 2.0 - - 10 - - - -
21/08:00pm 9.6 WSW 8 9 1030.6 - 2.0 - - 10 - - - -
21/07:30pm 9.9 WSW 8 9 1030.7 - 2.0 - - 10 - - - -
21/07:00pm 10.3 SW 5 8 1030.6 - 2.0 - Partly cloudy 10 - - - -
21/06:30pm 10.6 WSW 5 6 1030.5 - 2.0 - Partly cloudy 10 - - - -
21/06:00pm 10.4 SW 6 11 1030.2 - 2.0 - Mostly clear 10 - - - -
21/05:30pm 10.6 SW 4 5 1029.9 - 2.0 - Partly cloudy 10 - - - -
21/05:00pm 11.6 WSW 4 6 1029.7 - 2.0 - Partly cloudy 10 - - - -
21/04:30pm 11.6 WSW 5 7 1029.5 - 2.0 - Partly cloudy 10 - - - -
21/04:27pm 11.4 SW 6 9 1029.5 - 2.0 - Partly cloudy 10 - - - -
21/04:08pm 11.5 S 11 18 1029.6 - 2.0 - Partly cloudy 5 - - - -
21/04:00pm 13.5 S 6 7 1029.4 - 1.6 - Partly cloudy 10 - - - -
21/03:30pm 12.8 SSE 8 11 1029.3 - 1.6 - Partly cloudy 10 - - - -
21/03:00pm 13.0 S 10 12 1029.2 - 1.6 - Mostly cloudy 10 - - - -
21/02:30pm 12.9 SE 11 14 1029.1 - 1.6 - Partly cloudy 10 - - - -
21/02:01pm 11.8 SE 9 11 1029.3 - 1.6 - Partly cloudy 10 - - - -
21/02:00pm 11.8 SE 9 11 1029.3 - 1.6 - Partly cloudy 10 - - - -
21/01:32pm 12.1 SSE 2 7 1029.5 - 1.0 - Partly cloudy 5 - - - -
21/01:30pm 12.1 SE 1 6 1029.5 - 0.8 - Partly cloudy 8 - - - -
21/01:25pm 12.0 CALM 0 0 1029.4 - 0.8 - Partly cloudy 10 - - - -
21/01:00pm 12.2 SE 2 4 1029.6 - 0.6 - Partly cloudy 5 - - - -
21/12:41pm 12.0 SW 3 5 1029.7 - 0.4 - Partly cloudy 5 - - - -
21/12:30pm 11.9 WSW 3 5 1029.7 - 0.4 - Partly cloudy 10 - - - -
21/12:19pm 11.5 W 3 5 1029.8 - 0.4 - Partly cloudy 10 - - - -
21/12:00pm 11.3 S 8 10 1030.1 - 0.4 Rain Cloudy 5 - - - -
21/11:40am 11.9 SSE 12 15 1030.2 - 0.0 - Partly cloudy 5 - - - -
21/11:30am 13.0 SE 13 15 1030.1 - 0.0 - Partly cloudy 10 - - - -
21/11:00am 12.7 SSW 9 18 1030.1 - 0.0 - Partly cloudy 10 - - - -
21/10:30am 12.9 SSE 7 11 1030.1 - 0.0 - Partly cloudy 10 - - - -
21/10:00am 11.6 S 6 8 1030.0 - 0.0 - Partly cloudy 10 - - - -
21/09:30am 11.7 SSW 5 7 1029.8 - 0.0 - Partly cloudy 10 - - - -
21/09:20am 11.4 SSW 6 7 1029.7 - 0.0 - Partly cloudy 10 - - - -
21/09:03am 10.9 SSW 8 10 1029.7 - 0.0 - Partly cloudy 5 - - - -
21/09:00am 10.9 SSW 7 10 1029.7 - 1.6 - Mostly cloudy 7 - - - -
21/08:30am 10.6 WSW 6 8 1029.4 - 1.6 - Partly cloudy 10 - - - -
21/08:00am 10.4 WSW 4 5 1029.1 - 1.6 - Partly cloudy 10 - - - -
21/07:30am 10.2 SSW 8 11 1028.8 - 1.6 - Partly cloudy 10 - - - -
21/07:00am 10.0 SW 8 11 1028.4 - 1.6 - Partly cloudy 10 - - - -
21/06:30am 9.5 WSW 10 13 1027.9 - 1.6 - Partly cloudy 10 - - - -
21/06:00am 9.6 SW 8 11 1027.5 - 1.6 Recent precip. Partly cloudy 10 - - - -
21/05:30am 9.9 SSW 11 15 1027.1 - 1.4 - Partly cloudy 10 - - - -
21/05:00am 9.3 SW 5 7 1027.1 - 1.4 - Partly cloudy 10 - - - -
21/04:30am 9.7 SW 6 8 1026.9 - 1.4 - Partly cloudy 10 - - - -
21/04:00am 10.3 S 16 21 1026.9 - 1.4 - Cloudy 10 - - - -
21/03:42am 10.5 SSW 14 21 1026.8 - 1.2 - Partly cloudy 10 - - - -
21/03:30am 10.4 SSW 7 9 1026.8 - 1.2 - Partly cloudy 10 - - - -
21/03:00am 10.0 SSW 9 11 1026.7 - 1.2 - Cloudy 10 - - - -
21/02:30am 9.7 SW 8 11 1026.7 - 1.2 - Partly cloudy 10 - - - -
21/02:00am 9.3 SW 7 9 1026.6 - 1.2 - Partly cloudy 10 - - - -
21/01:30am 9.6 SW 8 11 1026.6 - 1.2 - Partly cloudy 10 - - - -
21/01:00am 9.6 SW 6 10 1026.4 - 1.2 - Partly cloudy 10 - - - -

Other Formats:

Comma delimited format used in spreadsheet applications
http://www.bom.gov.au/fwo/IDS60701/IDS60701.95661.axf

JavaScript Object Notation format (JSON) in row-major order
http://www.bom.gov.au/fwo/IDS60701/IDS60701.95661.json